Time Latitude Longitude Accuracy (66% radius in meters) Altitude (meters) Speed (km/hour) Bearing (degrees) Battery (%) GPS flag
14:31:22 59.876491 29.926344 12 28.06832621219 0 337.92642211914 71 1 delete
14:31:11 59.876491 29.926344 16 27.782839134021 0 337.92642211914 71 1 delete
14:31:01 59.876499 29.926327 24 25.799611210907 0 337.92642211914 71 1 delete
14:30:48 59.876507 29.926312 16 26.089262131977 0 337.92642211914 71 1 delete
14:30:37 59.876507 29.926312 24 25.968100006912 0 337.92642211914 71 1 delete
15:30:28 59.876499 29.926414 16 30.221331744807 1.2545951604843 297.0368347168 71 0 delete
14:30:15 59.876499 29.926387 16 26.940696816652 0 297.0368347168 71 1 delete
14:30:04 59.876499 29.926414 16 28.497163606083 0 297.0368347168 71 1 delete
14:29:51 59.876499 29.926414 16 30.221331744807 1.2545951604843 297.0368347168 71 1 delete
14:29:38 59.876481 29.926540 16 31.265588487103 0 323.08221435547 71 1 delete
14:29:26 59.876475 29.926541 12 31.580326062846 0 323.08221435547 71 1 delete
14:29:14 59.876467 29.926548 32 32.910960282967 0 323.08221435547 71 1 delete
14:29:02 59.876468 29.926554 8 34.738250762064 0 323.08221435547 71 1 delete
14:28:48 59.876468 29.926554 16 34.794608507398 0 323.08221435547 71 1 delete
14:28:38 59.876468 29.926554 24 34.603498724346 0 323.08221435547 71 1 delete
14:28:28 59.876468 29.926554 16 34.518718477978 0 323.08221435547 71 1 delete
14:28:17 59.876452 29.926565 16 33.909416366907 0 127.21494293213 71 1 delete
14:28:07 59.876446 29.926563 16 33.22521009344 0 127.21494293213 71 1 delete
14:27:56 59.876455 29.926545 12 33.592231379184 0 291.71731567383 71 1 delete
14:27:46 59.876449 29.926569 16 34.087593555773 0 150.83169555664 71 1 delete
14:27:36 59.876451 29.926592 16 33.790201552816 0 105.16438293457 71 1 delete
14:27:25 59.876451 29.926592 24 33.525690204709 0 105.16438293457 71 1 delete
14:27:15 59.876452 29.926605 16 33.30004059526 0 105.16438293457 71 1 delete
14:27:05 59.876452 29.926605 16 33.014104364087 0 105.16438293457 71 1 delete
14:26:55 59.876452 29.926605 16 32.22099046125 0 105.16438293457 71 1 delete
14:26:44 59.876452 29.926605 12 32.592743668296 0 105.16438293457 71 1 delete
14:26:34 59.876452 29.926605 16 32.915671864192 0 105.16438293457 71 1 delete
14:26:24 59.876444 29.926607 16 31.647622207398 0 105.16438293457 71 1 delete
14:26:10 59.876444 29.926607 16 30.342787136461 0 105.16438293457 71 1 delete
14:25:58 59.876438 29.926623 16 30.300995473203 0 105.16438293457 71 1 delete
14:25:48 59.876438 29.926623 16 30.389449968877 0 105.16438293457 71 1 delete
14:25:37 59.876428 29.926604 12 29.844304982087 0 105.16438293457 71 1 delete
14:25:18 59.876428 29.926570 24 27.540834332321 0 90.116340637207 71 1 delete
14:25:06 59.876421 29.926538 16 25.785565254563 0.83008283376694 91.384689331055 71 1 delete
14:24:56 59.876418 29.926526 12 25.768190125476 0 106.29598999023 71 1 delete
14:24:44 59.876418 29.926526 12 27.764421371398 0 106.29598999023 71 1 delete
14:24:34 59.876418 29.926526 16 28.680346713241 0 106.29598999023 71 1 delete
14:24:23 59.876418 29.926526 24 29.686323247315 0 106.29598999023 71 1 delete
14:24:13 59.876418 29.926526 16 30.368229684751 0 106.29598999023 71 1 delete
14:24:03 59.876418 29.926526 16 30.684941468901 0 106.29598999023 71 1 delete
14:23:52 59.876418 29.926526 16 30.607710810177 0 106.29598999023 71 1 delete
14:23:42 59.876418 29.926526 24 30.628506239741 0 106.29598999023 71 1 delete
14:23:31 59.876418 29.926526 16 30.614381322949 0 106.29598999023 71 1 delete
14:23:21 59.876418 29.926526 16 30.649857344268 0 106.29598999023 71 1 delete
14:23:10 59.876418 29.926526 16 30.751934966239 0 106.29598999023 71 1 delete
14:23:00 59.876418 29.926526 12 31.04536057213 0 106.29598999023 71 1 delete
14:22:50 59.876418 29.926526 16 30.988001761836 0 106.29598999023 71 1 delete
14:22:39 59.876418 29.926526 12 30.660436260464 0 106.29598999023 71 1 delete
14:22:29 59.876418 29.926526 12 30.353959804397 0 106.29598999023 71 1 delete
14:22:19 59.876418 29.926526 16 30.014294327895 0 106.29598999023 71 1 delete